createdAt,value
2022-10-24T00:00:02.299Z,12.70
2022-10-24T00:02:30.840Z,12.70
2022-10-24T00:05:02.151Z,12.80
2022-10-24T00:07:31.660Z,13.00
2022-10-24T00:09:58.894Z,13.00
2022-10-24T00:12:26.120Z,12.90
2022-10-24T00:14:54.275Z,13.00
2022-10-24T00:17:22.582Z,13.00
2022-10-24T00:19:50.640Z,13.00
2022-10-24T00:22:18.068Z,13.00
2022-10-24T00:24:46.491Z,12.90
2022-10-24T00:27:13.892Z,12.90
2022-10-24T00:29:42.463Z,12.80
2022-10-24T00:50:59.778Z,13.40
2022-10-24T00:53:32.125Z,13.40
2022-10-24T00:56:02.731Z,13.60
2022-10-24T00:58:32.621Z,13.30
2022-10-24T01:01:00.212Z,13.20
2022-10-24T01:03:28.430Z,12.90
2022-10-24T01:06:27.208Z,13.00
2022-10-24T01:09:27.249Z,13.00
2022-10-24T01:12:15.797Z,13.00
2022-10-24T01:14:47.900Z,12.90
2022-10-24T01:17:59.163Z,12.70
2022-10-24T01:20:37.968Z,12.70
2022-10-24T01:23:43.120Z,12.60
2022-10-24T01:26:41.826Z,12.60
2022-10-24T01:29:33.368Z,12.60
2022-10-24T01:32:20.657Z,12.60
2022-10-24T01:35:11.700Z,12.60
2022-10-24T01:38:06.049Z,12.70
2022-10-24T01:41:01.093Z,12.60
2022-10-24T01:43:36.517Z,12.70
2022-10-24T01:46:12.233Z,12.70
2022-10-24T01:48:49.700Z,12.80
2022-10-24T01:51:22.482Z,12.70
2022-10-24T01:59:34.068Z,12.70
2022-10-24T02:02:23.302Z,12.70
2022-10-24T02:07:30.388Z,12.80
2022-10-24T02:18:06.477Z,12.80
2022-10-24T02:23:56.267Z,12.80
2022-10-24T02:40:34.627Z,12.80
2022-10-24T02:43:06.442Z,13.00
2022-10-24T02:45:37.322Z,12.90
2022-10-24T02:48:11.002Z,12.80
2022-10-24T02:50:43.916Z,12.70
2022-10-24T02:53:26.939Z,12.70
2022-10-24T02:56:06.056Z,12.90
2022-10-24T02:58:34.799Z,13.20
2022-10-24T03:09:12.673Z,13.20
2022-10-24T03:54:57.236Z,13.70
2022-10-24T04:02:52.902Z,13.60
2022-10-24T04:05:20.712Z,13.60
2022-10-24T04:07:49.551Z,13.40
2022-10-24T04:10:16.543Z,13.40
2022-10-24T04:12:43.870Z,13.50
2022-10-24T04:15:11.801Z,13.60
2022-10-24T04:17:38.891Z,13.80
2022-10-24T04:20:11.749Z,13.90
2022-10-24T04:22:39.232Z,14.00
2022-10-24T04:25:06.503Z,14.10
2022-10-24T04:27:34.121Z,14.00
2022-10-24T04:30:00.989Z,14.10
2022-10-24T04:32:30.710Z,14.20
2022-10-24T04:35:02.477Z,14.20
2022-10-24T04:37:30.047Z,14.20
2022-10-24T04:39:57.505Z,14.10
2022-10-24T04:42:26.237Z,14.00
2022-10-24T04:44:53.860Z,13.90
2022-10-24T04:47:23.870Z,13.80
2022-10-24T04:49:54.393Z,13.90
2022-10-24T04:54:56.727Z,14.20
2022-10-24T04:59:59.573Z,14.30
2022-10-24T05:02:31.806Z,14.40
2022-10-24T05:05:06.982Z,14.40
2022-10-24T05:07:39.366Z,14.20
2022-10-24T05:10:09.397Z,14.20
2022-10-24T05:12:39.389Z,14.20
2022-10-24T05:15:08.764Z,14.40
2022-10-24T05:20:22.248Z,14.40
2022-10-24T05:28:19.233Z,14.10
2022-10-24T05:36:16.752Z,14.40
2022-10-24T05:38:47.712Z,14.40
2022-10-24T05:41:15.754Z,14.50
2022-10-24T05:43:43.276Z,14.60
2022-10-24T05:46:18.950Z,14.50
2022-10-24T05:48:53.143Z,14.50
2022-10-24T06:15:42.503Z,14.70
2022-10-24T06:39:46.427Z,14.70
2022-10-24T06:42:16.573Z,14.70
2022-10-24T06:44:44.015Z,14.60
2022-10-24T06:47:12.294Z,14.60
2022-10-24T06:49:40.308Z,14.90
2022-10-24T06:52:09.210Z,15.10
2022-10-24T07:27:02.717Z,15.90
2022-10-24T08:18:46.800Z,18.10
2022-10-24T09:06:55.993Z,19.40
2022-10-24T09:14:43.494Z,19.60
2022-10-24T09:17:23.229Z,19.70
2022-10-24T09:19:57.140Z,19.80
2022-10-24T09:22:30.935Z,19.90
2022-10-24T09:27:41.303Z,19.90
2022-10-24T09:30:19.536Z,20.00
2022-10-24T09:32:47.665Z,20.00
2022-10-24T09:38:20.202Z,19.80
2022-10-24T09:40:52.483Z,19.70
2022-10-24T09:43:26.568Z,19.90
2022-10-24T09:46:10.061Z,19.90
2022-10-24T09:49:11.820Z,19.90
2022-10-24T09:51:51.483Z,19.80
2022-10-24T09:54:21.452Z,19.90
2022-10-24T09:59:58.880Z,20.10
2022-10-24T10:02:34.391Z,20.10
2022-10-24T10:05:04.801Z,20.20
2022-10-24T10:07:37.815Z,20.10
2022-10-24T10:10:27.190Z,20.10
2022-10-24T10:13:03.300Z,20.20
2022-10-24T10:15:36.566Z,20.30
2022-10-24T10:18:28.446Z,20.40
2022-10-24T10:21:19.201Z,20.60
2022-10-24T10:23:52.165Z,20.80
2022-10-24T10:26:28.046Z,20.80
2022-10-24T10:29:01.307Z,20.90
2022-10-24T10:32:08.025Z,21.10
2022-10-24T10:34:40.038Z,21.30
2022-10-24T10:37:43.194Z,21.20
2022-10-24T10:40:34.012Z,21.30
2022-10-24T10:43:39.262Z,21.40
2022-10-24T10:46:11.622Z,21.60
2022-10-24T10:48:51.802Z,21.60
2022-10-24T10:51:42.546Z,21.60
2022-10-24T10:54:28.641Z,21.60
2022-10-24T10:57:10.792Z,21.50
2022-10-24T11:00:20.726Z,21.50
2022-10-24T11:03:06.899Z,21.60
2022-10-24T11:05:41.121Z,21.50
2022-10-24T11:08:19.474Z,21.50
2022-10-24T11:11:13.458Z,21.50
2022-10-24T11:13:53.020Z,21.60
2022-10-24T11:16:27.058Z,21.80
2022-10-24T11:19:09.864Z,21.90
2022-10-24T11:21:39.951Z,21.80
2022-10-24T11:24:22.615Z,21.90
2022-10-24T11:27:02.109Z,21.80
2022-10-24T11:33:00.862Z,21.60
2022-10-24T11:35:40.740Z,21.40
2022-10-24T11:38:19.184Z,21.30
2022-10-24T11:41:01.394Z,21.20
2022-10-24T11:43:42.988Z,21.10
2022-10-24T11:54:40.290Z,21.10
2022-10-24T12:00:08.868Z,21.20
2022-10-24T12:08:09.175Z,21.30
2022-10-24T12:19:07.104Z,21.40
2022-10-24T12:35:36.691Z,21.20
2022-10-24T12:46:23.940Z,21.40
2022-10-24T12:51:42.020Z,21.30
2022-10-24T16:20:14.319Z,17.70
2022-10-24T16:38:47.106Z,17.40
2022-10-24T16:41:19.882Z,17.40
2022-10-24T16:43:49.877Z,17.40
2022-10-24T16:46:20.745Z,17.30
2022-10-24T16:48:48.859Z,17.40
2022-10-24T16:51:20.113Z,17.40
2022-10-24T16:53:47.925Z,17.50
2022-10-24T16:56:16.303Z,17.50
2022-10-24T16:58:47.400Z,17.40
2022-10-24T17:01:22.141Z,17.60
2022-10-24T17:09:15.689Z,17.40
2022-10-24T17:14:27.596Z,17.50
2022-10-24T17:16:57.760Z,17.40
2022-10-24T17:19:26.129Z,17.20
2022-10-24T17:21:53.288Z,17.00
2022-10-24T17:24:23.770Z,16.90
2022-10-24T17:26:56.583Z,16.80
2022-10-24T17:29:30.697Z,16.90
2022-10-24T17:32:00.866Z,17.00
2022-10-24T17:34:30.239Z,17.40
2022-10-24T17:37:02.225Z,17.70
2022-10-24T17:39:32.869Z,17.80
2022-10-24T17:42:02.150Z,17.70
2022-10-24T17:44:29.622Z,17.80
2022-10-24T17:46:59.480Z,17.80
2022-10-24T17:49:27.352Z,17.70
2022-10-24T17:51:54.790Z,17.60
2022-10-24T17:54:24.090Z,17.30
2022-10-24T17:56:51.098Z,17.20
2022-10-24T17:59:18.104Z,17.00
2022-10-24T18:01:45.035Z,16.80
2022-10-24T18:04:16.277Z,16.70
2022-10-24T18:06:44.240Z,16.60
2022-10-24T18:09:25.962Z,16.50
2022-10-24T18:12:10.998Z,16.50
2022-10-24T18:17:25.093Z,16.30
2022-10-24T18:22:58.119Z,16.20
2022-10-24T18:25:39.795Z,16.40
2022-10-24T18:28:10.519Z,16.20
2022-10-24T18:33:33.567Z,16.20
2022-10-24T18:53:08.921Z,17.00
2022-10-24T19:14:31.296Z,17.00
2022-10-24T19:30:28.871Z,16.80
2022-10-24T19:35:43.178Z,16.60
2022-10-24T19:38:12.276Z,16.70
2022-10-24T20:06:52.311Z,16.70
2022-10-24T20:17:21.850Z,16.80
2022-10-24T20:27:50.055Z,16.90
2022-10-24T20:35:43.067Z,16.60
2022-10-24T20:38:10.704Z,16.70
2022-10-24T20:40:40.789Z,16.80
2022-10-24T20:43:09.894Z,16.70
2022-10-24T21:26:05.342Z,16.60
2022-10-24T21:28:37.014Z,16.70
2022-10-24T21:36:28.417Z,17.00
2022-10-24T21:39:00.393Z,17.00
2022-10-24T21:41:29.694Z,17.00
2022-10-24T21:43:56.880Z,17.10
2022-10-24T21:51:53.053Z,17.00
2022-10-24T21:54:27.610Z,16.90
2022-10-24T21:59:53.049Z,16.60
2022-10-24T22:02:21.518Z,16.70
2022-10-24T22:04:50.411Z,16.60
2022-10-24T22:07:23.672Z,16.80
2022-10-24T22:09:52.299Z,16.80
2022-10-24T22:12:20.370Z,16.80
2022-10-24T22:36:30.664Z,16.70
2022-10-24T22:41:34.016Z,16.70
2022-10-24T22:54:42.989Z,16.30
2022-10-24T22:57:11.264Z,16.20
2022-10-24T22:59:42.620Z,16.20
2022-10-24T23:02:22.835Z,16.20
2022-10-24T23:05:14.869Z,16.20
2022-10-24T23:08:07.711Z,16.20
2022-10-24T23:10:38.011Z,16.00
2022-10-24T23:13:06.973Z,16.00
2022-10-24T23:15:38.456Z,15.80
2022-10-24T23:18:12.994Z,15.60
2022-10-24T23:21:01.182Z,15.50
2022-10-24T23:23:35.019Z,15.40
2022-10-24T23:26:30.009Z,15.40
2022-10-24T23:29:27.618Z,15.30
2022-10-24T23:31:54.886Z,15.20
2022-10-24T23:34:22.633Z,15.10
2022-10-24T23:36:50.520Z,15.00
2022-10-24T23:39:39.881Z,14.80
2022-10-24T23:42:09.722Z,14.80
2022-10-24T23:44:41.925Z,14.70
2022-10-24T23:50:08.793Z,14.50
2022-10-24T23:52:41.203Z,14.40
